sensor_id;sensor_type;location;lat;lon;timestamp;P1;durP1;ratioP1;P2;durP2;ratioP2
43311;SDS011;30041;48.300;16.352;2023-03-01T00:00:08;1.33;;;1.10;;
43311;SDS011;30041;48.300;16.352;2023-03-01T00:02:33;1.67;;;1.05;;
43311;SDS011;30041;48.300;16.352;2023-03-01T00:04:59;1.30;;;0.90;;
43311;SDS011;30041;48.300;16.352;2023-03-01T00:07:25;1.30;;;1.00;;
43311;SDS011;30041;48.300;16.352;2023-03-01T00:09:50;0.80;;;0.80;;
43311;SDS011;30041;48.300;16.352;2023-03-01T00:12:16;0.80;;;0.70;;
43311;SDS011;30041;48.300;16.352;2023-03-01T00:14:41;1.00;;;0.75;;
43311;SDS011;30041;48.300;16.352;2023-03-01T00:17:07;1.27;;;0.98;;
43311;SDS011;30041;48.300;16.352;2023-03-01T00:19:32;1.20;;;0.80;;
43311;SDS011;30041;48.300;16.352;2023-03-01T00:21:58;1.30;;;0.93;;
43311;SDS011;30041;48.300;16.352;2023-03-01T00:24:23;1.58;;;1.08;;
43311;SDS011;30041;48.300;16.352;2023-03-01T00:26:52;1.30;;;0.90;;
43311;SDS011;30041;48.300;16.352;2023-03-01T00:29:18;0.80;;;0.73;;
43311;SDS011;30041;48.300;16.352;2023-03-01T00:31:44;1.20;;;0.90;;
43311;SDS011;30041;48.300;16.352;2023-03-01T00:34:09;1.00;;;0.80;;
43311;SDS011;30041;48.300;16.352;2023-03-01T00:36:35;1.67;;;0.85;;
43311;SDS011;30041;48.300;16.352;2023-03-01T00:39:02;1.08;;;0.80;;
43311;SDS011;30041;48.300;16.352;2023-03-01T00:41:29;1.08;;;0.80;;
43311;SDS011;30041;48.300;16.352;2023-03-01T00:43:54;1.17;;;0.90;;
43311;SDS011;30041;48.300;16.352;2023-03-01T00:46:21;1.13;;;0.82;;
43311;SDS011;30041;48.300;16.352;2023-03-01T00:48:48;1.02;;;0.80;;
43311;SDS011;30041;48.300;16.352;2023-03-01T00:51:17;1.17;;;0.90;;
43311;SDS011;30041;48.300;16.352;2023-03-01T00:53:45;1.20;;;1.00;;
43311;SDS011;30041;48.300;16.352;2023-03-01T00:56:12;1.35;;;0.80;;
43311;SDS011;30041;48.300;16.352;2023-03-01T00:58:39;1.58;;;1.02;;
43311;SDS011;30041;48.300;16.352;2023-03-01T01:01:11;0.77;;;0.70;;
43311;SDS011;30041;48.300;16.352;2023-03-01T01:03:41;1.00;;;0.80;;
43311;SDS011;30041;48.300;16.352;2023-03-01T01:06:08;0.77;;;0.65;;
43311;SDS011;30041;48.300;16.352;2023-03-01T01:08:49;0.88;;;0.70;;
43311;SDS011;30041;48.300;16.352;2023-03-01T01:11:16;1.02;;;0.75;;
43311;SDS011;30041;48.300;16.352;2023-03-01T01:13:41;1.10;;;0.80;;
43311;SDS011;30041;48.300;16.352;2023-03-01T01:16:08;0.98;;;0.70;;
43311;SDS011;30041;48.300;16.352;2023-03-01T01:18:34;1.02;;;0.80;;
43311;SDS011;30041;48.300;16.352;2023-03-01T01:21:06;1.10;;;0.77;;
43311;SDS011;30041;48.300;16.352;2023-03-01T01:23:37;1.27;;;0.90;;
43311;SDS011;30041;48.300;16.352;2023-03-01T01:26:04;1.10;;;0.73;;
43311;SDS011;30041;48.300;16.352;2023-03-01T01:28:40;0.75;;;0.68;;
43311;SDS011;30041;48.300;16.352;2023-03-01T01:31:06;1.00;;;0.77;;
43311;SDS011;30041;48.300;16.352;2023-03-01T01:33:32;0.73;;;0.68;;
43311;SDS011;30041;48.300;16.352;2023-03-01T01:35:59;1.33;;;0.90;;
43311;SDS011;30041;48.300;16.352;2023-03-01T01:38:24;0.80;;;0.73;;
43311;SDS011;30041;48.300;16.352;2023-03-01T01:40:50;1.08;;;0.65;;
43311;SDS011;30041;48.300;16.352;2023-03-01T01:43:22;0.95;;;0.73;;
43311;SDS011;30041;48.300;16.352;2023-03-01T01:45:49;0.85;;;0.63;;
43311;SDS011;30041;48.300;16.352;2023-03-01T01:48:18;1.02;;;0.75;;
43311;SDS011;30041;48.300;16.352;2023-03-01T01:50:49;0.90;;;0.70;;
43311;SDS011;30041;48.300;16.352;2023-03-01T01:53:20;0.68;;;0.60;;
43311;SDS011;30041;48.300;16.352;2023-03-01T01:55:48;1.23;;;0.70;;
43311;SDS011;30041;48.300;16.352;2023-03-01T01:58:18;0.98;;;0.70;;
43311;SDS011;30041;48.300;16.352;2023-03-01T02:00:45;1.02;;;0.80;;
43311;SDS011;30041;48.300;16.352;2023-03-01T02:03:13;0.50;;;0.50;;
43311;SDS011;30041;48.300;16.352;2023-03-01T02:08:12;0.90;;;0.70;;
43311;SDS011;30041;48.300;16.352;2023-03-01T02:10:39;0.90;;;0.75;;
43311;SDS011;30041;48.300;16.352;2023-03-01T02:13:06;0.90;;;0.70;;
43311;SDS011;30041;48.300;16.352;2023-03-01T02:15:35;0.90;;;0.55;;
43311;SDS011;30041;48.300;16.352;2023-03-01T02:18:04;1.20;;;0.80;;
43311;SDS011;30041;48.300;16.352;2023-03-01T02:20:50;1.27;;;0.85;;
43311;SDS011;30041;48.300;16.352;2023-03-01T02:23:30;1.40;;;0.80;;
43311;SDS011;30041;48.300;16.352;2023-03-01T02:28:31;0.95;;;0.80;;
43311;SDS011;30041;48.300;16.352;2023-03-01T02:31:00;1.20;;;0.88;;
43311;SDS011;30041;48.300;16.352;2023-03-01T02:33:27;0.65;;;0.60;;
43311;SDS011;30041;48.300;16.352;2023-03-01T02:35:53;1.35;;;0.85;;
43311;SDS011;30041;48.300;16.352;2023-03-01T02:38:19;0.93;;;0.70;;
43311;SDS011;30041;48.300;16.352;2023-03-01T02:40:48;0.80;;;0.60;;
43311;SDS011;30041;48.300;16.352;2023-03-01T02:43:15;0.50;;;0.50;;
43311;SDS011;30041;48.300;16.352;2023-03-01T02:45:47;0.60;;;0.50;;
43311;SDS011;30041;48.300;16.352;2023-03-01T02:48:14;0.80;;;0.60;;
43311;SDS011;30041;48.300;16.352;2023-03-01T02:51:03;0.55;;;0.50;;
43311;SDS011;30041;48.300;16.352;2023-03-01T02:53:35;0.80;;;0.60;;
43311;SDS011;30041;48.300;16.352;2023-03-01T02:56:09;1.10;;;0.85;;
43311;SDS011;30041;48.300;16.352;2023-03-01T02:58:35;0.75;;;0.57;;
43311;SDS011;30041;48.300;16.352;2023-03-01T03:01:01;0.73;;;0.70;;
43311;SDS011;30041;48.300;16.352;2023-03-01T03:03:26;0.95;;;0.63;;
43311;SDS011;30041;48.300;16.352;2023-03-01T03:05:52;1.02;;;0.70;;
43311;SDS011;30041;48.300;16.352;2023-03-01T03:08:17;0.77;;;0.60;;
43311;SDS011;30041;48.300;16.352;2023-03-01T03:10:43;0.80;;;0.60;;
43311;SDS011;30041;48.300;16.352;2023-03-01T03:13:10;1.15;;;0.75;;
43311;SDS011;30041;48.300;16.352;2023-03-01T03:15:40;0.95;;;0.60;;
43311;SDS011;30041;48.300;16.352;2023-03-01T03:18:09;1.10;;;0.80;;
43311;SDS011;30041;48.300;16.352;2023-03-01T03:20:38;0.50;;;0.50;;
43311;SDS011;30041;48.300;16.352;2023-03-01T03:23:05;0.82;;;0.55;;
43311;SDS011;30041;48.300;16.352;2023-03-01T03:25:30;0.80;;;0.60;;
43311;SDS011;30041;48.300;16.352;2023-03-01T03:27:56;0.68;;;0.63;;
43311;SDS011;30041;48.300;16.352;2023-03-01T03:30:27;0.43;;;0.43;;
43311;SDS011;30041;48.300;16.352;2023-03-01T03:32:55;0.50;;;0.50;;
43311;SDS011;30041;48.300;16.352;2023-03-01T03:35:22;0.93;;;0.60;;
43311;SDS011;30041;48.300;16.352;2023-03-01T03:37:52;0.70;;;0.55;;
43311;SDS011;30041;48.300;16.352;2023-03-01T03:40:18;0.70;;;0.57;;
43311;SDS011;30041;48.300;16.352;2023-03-01T03:42:43;0.70;;;0.60;;
43311;SDS011;30041;48.300;16.352;2023-03-01T03:45:09;0.50;;;0.50;;
43311;SDS011;30041;48.300;16.352;2023-03-01T03:47:34;0.63;;;0.60;;
43311;SDS011;30041;48.300;16.352;2023-03-01T03:50:00;0.80;;;0.70;;
43311;SDS011;30041;48.300;16.352;2023-03-01T03:52:26;0.63;;;0.50;;
43311;SDS011;30041;48.300;16.352;2023-03-01T03:54:51;0.82;;;0.60;;
43311;SDS011;30041;48.300;16.352;2023-03-01T03:57:17;0.82;;;0.57;;
43311;SDS011;30041;48.300;16.352;2023-03-01T03:59:42;0.82;;;0.60;;
43311;SDS011;30041;48.300;16.352;2023-03-01T04:02:08;0.85;;;0.50;;
43311;SDS011;30041;48.300;16.352;2023-03-01T04:04:33;0.90;;;0.60;;
43311;SDS011;30041;48.300;16.352;2023-03-01T04:06:59;0.60;;;0.50;;
43311;SDS011;30041;48.300;16.352;2023-03-01T04:09:25;0.60;;;0.50;;
43311;SDS011;30041;48.300;16.352;2023-03-01T04:11:50;0.70;;;0.60;;
43311;SDS011;30041;48.300;16.352;2023-03-01T04:14:16;0.55;;;0.50;;
43311;SDS011;30041;48.300;16.352;2023-03-01T04:16:41;0.90;;;0.68;;
43311;SDS011;30041;48.300;16.352;2023-03-01T04:19:07;0.85;;;0.50;;
43311;SDS011;30041;48.300;16.352;2023-03-01T04:21:32;0.60;;;0.45;;
43311;SDS011;30041;48.300;16.352;2023-03-01T04:23:58;0.43;;;0.43;;
43311;SDS011;30041;48.300;16.352;2023-03-01T04:26:24;0.65;;;0.50;;
43311;SDS011;30041;48.300;16.352;2023-03-01T04:28:49;0.73;;;0.50;;
43311;SDS011;30041;48.300;16.352;2023-03-01T04:31:17;0.60;;;0.50;;
43311;SDS011;30041;48.300;16.352;2023-03-01T04:33:44;0.88;;;0.57;;
43311;SDS011;30041;48.300;16.352;2023-03-01T04:36:11;0.60;;;0.50;;
43311;SDS011;30041;48.300;16.352;2023-03-01T04:38:37;0.60;;;0.60;;
43311;SDS011;30041;48.300;16.352;2023-03-01T04:41:08;0.70;;;0.55;;
43311;SDS011;30041;48.300;16.352;2023-03-01T04:43:35;0.70;;;0.60;;
43311;SDS011;30041;48.300;16.352;2023-03-01T04:46:02;0.70;;;0.50;;
43311;SDS011;30041;48.300;16.352;2023-03-01T04:48:29;0.93;;;0.57;;
43311;SDS011;30041;48.300;16.352;2023-03-01T04:50:55;0.60;;;0.50;;
43311;SDS011;30041;48.300;16.352;2023-03-01T04:53:21;0.60;;;0.50;;
43311;SDS011;30041;48.300;16.352;2023-03-01T04:55:46;0.95;;;0.57;;
43311;SDS011;30041;48.300;16.352;2023-03-01T04:58:12;0.52;;;0.50;;
43311;SDS011;30041;48.300;16.352;2023-03-01T05:00:38;0.88;;;0.60;;
43311;SDS011;30041;48.300;16.352;2023-03-01T05:03:03;0.50;;;0.45;;
43311;SDS011;30041;48.300;16.352;2023-03-01T05:05:30;0.60;;;0.55;;
43311;SDS011;30041;48.300;16.352;2023-03-01T05:08:03;0.47;;;0.40;;
43311;SDS011;30041;48.300;16.352;2023-03-01T05:10:31;0.40;;;0.40;;
43311;SDS011;30041;48.300;16.352;2023-03-01T05:12:58;0.63;;;0.50;;
43311;SDS011;30041;48.300;16.352;2023-03-01T05:15:24;0.40;;;0.40;;
43311;SDS011;30041;48.300;16.352;2023-03-01T05:17:54;0.30;;;0.30;;
43311;SDS011;30041;48.300;16.352;2023-03-01T05:20:21;0.30;;;0.30;;
43311;SDS011;30041;48.300;16.352;2023-03-01T05:22:47;1.85;;;0.50;;
43311;SDS011;30041;48.300;16.352;2023-03-01T05:25:12;1.27;;;0.50;;
43311;SDS011;30041;48.300;16.352;2023-03-01T05:27:38;0.77;;;0.47;;
43311;SDS011;30041;48.300;16.352;2023-03-01T05:30:03;1.42;;;0.43;;
43311;SDS011;30041;48.300;16.352;2023-03-01T05:32:30;0.45;;;0.30;;
43311;SDS011;30041;48.300;16.352;2023-03-01T05:34:55;0.68;;;0.50;;
43311;SDS011;30041;48.300;16.352;2023-03-01T05:37:21;0.50;;;0.30;;
43311;SDS011;30041;48.300;16.352;2023-03-01T05:39:47;0.60;;;0.40;;
43311;SDS011;30041;48.300;16.352;2023-03-01T05:42:12;0.98;;;0.40;;
43311;SDS011;30041;48.300;16.352;2023-03-01T05:44:38;0.68;;;0.40;;
43311;SDS011;30041;48.300;16.352;2023-03-01T05:47:03;0.35;;;0.20;;
43311;SDS011;30041;48.300;16.352;2023-03-01T05:49:29;0.98;;;0.40;;
43311;SDS011;30041;48.300;16.352;2023-03-01T05:51:54;8.60;;;2.88;;
43311;SDS011;30041;48.300;16.352;2023-03-01T05:54:20;7.88;;;2.85;;
43311;SDS011;30041;48.300;16.352;2023-03-01T05:56:47;7.15;;;3.53;;
43311;SDS011;30041;48.300;16.352;2023-03-01T05:59:12;13.05;;;6.68;;
43311;SDS011;30041;48.300;16.352;2023-03-01T06:01:38;16.15;;;7.57;;
43311;SDS011;30041;48.300;16.352;2023-03-01T06:04:03;10.30;;;5.65;;
43311;SDS011;30041;48.300;16.352;2023-03-01T06:06:32;8.13;;;4.70;;
43311;SDS011;30041;48.300;16.352;2023-03-01T06:08:59;9.95;;;4.28;;
43311;SDS011;30041;48.300;16.352;2023-03-01T06:11:24;8.82;;;4.05;;
43311;SDS011;30041;48.300;16.352;2023-03-01T06:13:50;10.70;;;4.35;;
43311;SDS011;30041;48.300;16.352;2023-03-01T06:16:16;6.63;;;3.90;;
43311;SDS011;30041;48.300;16.352;2023-03-01T06:18:41;6.78;;;4.25;;
43311;SDS011;30041;48.300;16.352;2023-03-01T06:21:07;12.38;;;5.07;;
43311;SDS011;30041;48.300;16.352;2023-03-01T06:23:33;8.65;;;4.30;;
43311;SDS011;30041;48.300;16.352;2023-03-01T06:26:00;9.10;;;3.90;;
43311;SDS011;30041;48.300;16.352;2023-03-01T06:28:29;7.60;;;3.80;;
43311;SDS011;30041;48.300;16.352;2023-03-01T06:30:57;5.95;;;3.67;;
43311;SDS011;30041;48.300;16.352;2023-03-01T06:33:23;8.55;;;4.03;;
43311;SDS011;30041;48.300;16.352;2023-03-01T06:35:49;6.90;;;3.72;;
43311;SDS011;30041;48.300;16.352;2023-03-01T06:38:19;7.30;;;3.95;;
43311;SDS011;30041;48.300;16.352;2023-03-01T06:40:45;7.65;;;3.85;;
43311;SDS011;30041;48.300;16.352;2023-03-01T06:43:16;7.78;;;4.57;;
43311;SDS011;30041;48.300;16.352;2023-03-01T06:45:42;10.18;;;4.70;;
43311;SDS011;30041;48.300;16.352;2023-03-01T06:48:07;7.18;;;4.57;;
43311;SDS011;30041;48.300;16.352;2023-03-01T06:50:34;9.32;;;5.97;;
43311;SDS011;30041;48.300;16.352;2023-03-01T06:53:00;8.57;;;5.60;;
43311;SDS011;30041;48.300;16.352;2023-03-01T06:55:26;10.85;;;5.55;;
43311;SDS011;30041;48.300;16.352;2023-03-01T06:57:55;10.60;;;5.68;;
43311;SDS011;30041;48.300;16.352;2023-03-01T07:00:22;8.27;;;5.10;;
43311;SDS011;30041;48.300;16.352;2023-03-01T07:02:48;7.20;;;4.80;;
43311;SDS011;30041;48.300;16.352;2023-03-01T07:05:13;11.98;;;5.25;;
43311;SDS011;30041;48.300;16.352;2023-03-01T07:07:39;9.05;;;4.95;;
43311;SDS011;30041;48.300;16.352;2023-03-01T07:10:05;10.13;;;5.07;;
43311;SDS011;30041;48.300;16.352;2023-03-01T07:12:31;10.10;;;5.50;;
43311;SDS011;30041;48.300;16.352;2023-03-01T07:14:57;11.57;;;5.30;;
43311;SDS011;30041;48.300;16.352;2023-03-01T07:17:22;9.55;;;5.68;;
43311;SDS011;30041;48.300;16.352;2023-03-01T07:19:48;10.25;;;6.90;;
43311;SDS011;30041;48.300;16.352;2023-03-01T07:22:13;14.38;;;5.45;;
43311;SDS011;30041;48.300;16.352;2023-03-01T07:24:40;10.77;;;5.50;;
43311;SDS011;30041;48.300;16.352;2023-03-01T07:27:06;7.72;;;4.95;;
43311;SDS011;30041;48.300;16.352;2023-03-01T07:29:32;8.18;;;4.50;;
43311;SDS011;30041;48.300;16.352;2023-03-01T07:31:57;6.53;;;4.63;;
43311;SDS011;30041;48.300;16.352;2023-03-01T07:34:25;7.20;;;4.70;;
43311;SDS011;30041;48.300;16.352;2023-03-01T07:36:50;7.10;;;4.03;;
43311;SDS011;30041;48.300;16.352;2023-03-01T07:39:16;6.03;;;4.00;;
43311;SDS011;30041;48.300;16.352;2023-03-01T07:41:41;5.50;;;3.72;;
43311;SDS011;30041;48.300;16.352;2023-03-01T07:44:07;5.20;;;3.58;;
43311;SDS011;30041;48.300;16.352;2023-03-01T07:46:32;5.53;;;3.45;;
43311;SDS011;30041;48.300;16.352;2023-03-01T07:49:01;6.22;;;3.60;;
43311;SDS011;30041;48.300;16.352;2023-03-01T07:51:27;5.40;;;3.20;;
43311;SDS011;30041;48.300;16.352;2023-03-01T07:53:52;4.47;;;3.28;;
43311;SDS011;30041;48.300;16.352;2023-03-01T07:56:18;4.70;;;3.03;;
43311;SDS011;30041;48.300;16.352;2023-03-01T07:58:43;3.80;;;2.92;;
43311;SDS011;30041;48.300;16.352;2023-03-01T08:01:13;4.30;;;3.00;;
43311;SDS011;30041;48.300;16.352;2023-03-01T08:03:40;5.53;;;2.78;;
43311;SDS011;30041;48.300;16.352;2023-03-01T08:06:07;4.57;;;3.10;;
43311;SDS011;30041;48.300;16.352;2023-03-01T08:08:35;6.63;;;2.67;;
43311;SDS011;30041;48.300;16.352;2023-03-01T08:11:02;3.00;;;2.20;;
43311;SDS011;30041;48.300;16.352;2023-03-01T08:13:29;4.75;;;2.50;;
43311;SDS011;30041;48.300;16.352;2023-03-01T08:16:00;3.97;;;2.42;;
43311;SDS011;30041;48.300;16.352;2023-03-01T08:18:30;4.20;;;2.10;;
43311;SDS011;30041;48.300;16.352;2023-03-01T08:20:56;3.30;;;2.30;;
43311;SDS011;30041;48.300;16.352;2023-03-01T08:23:27;3.25;;;1.92;;
43311;SDS011;30041;48.300;16.352;2023-03-01T08:25:52;3.40;;;2.05;;
43311;SDS011;30041;48.300;16.352;2023-03-01T08:28:18;3.08;;;1.80;;
43311;SDS011;30041;48.300;16.352;2023-03-01T08:30:43;4.30;;;2.00;;
43311;SDS011;30041;48.300;16.352;2023-03-01T08:33:09;2.78;;;1.75;;
43311;SDS011;30041;48.300;16.352;2023-03-01T08:35:35;2.90;;;1.88;;
43311;SDS011;30041;48.300;16.352;2023-03-01T08:38:02;2.42;;;1.50;;
43311;SDS011;30041;48.300;16.352;2023-03-01T08:40:28;2.67;;;1.63;;
43311;SDS011;30041;48.300;16.352;2023-03-01T08:42:53;2.65;;;1.83;;
43311;SDS011;30041;48.300;16.352;2023-03-01T08:45:19;3.10;;;1.80;;
43311;SDS011;30041;48.300;16.352;2023-03-01T08:47:44;2.20;;;1.40;;
43311;SDS011;30041;48.300;16.352;2023-03-01T08:50:10;2.30;;;1.60;;
43311;SDS011;30041;48.300;16.352;2023-03-01T08:52:36;1.73;;;1.35;;
43311;SDS011;30041;48.300;16.352;2023-03-01T08:55:04;4.00;;;1.73;;
43311;SDS011;30041;48.300;16.352;2023-03-01T08:57:30;2.90;;;1.77;;
43311;SDS011;30041;48.300;16.352;2023-03-01T08:59:56;2.35;;;1.60;;
43311;SDS011;30041;48.300;16.352;2023-03-01T09:02:22;2.72;;;1.70;;
43311;SDS011;30041;48.300;16.352;2023-03-01T09:04:47;4.63;;;1.60;;
43311;SDS011;30041;48.300;16.352;2023-03-01T09:07:13;2.55;;;1.55;;
43311;SDS011;30041;48.300;16.352;2023-03-01T09:09:38;3.08;;;1.50;;
43311;SDS011;30041;48.300;16.352;2023-03-01T09:12:04;2.60;;;1.70;;
43311;SDS011;30041;48.300;16.352;2023-03-01T09:14:30;2.75;;;1.40;;
43311;SDS011;30041;48.300;16.352;2023-03-01T09:16:55;2.75;;;1.55;;
43311;SDS011;30041;48.300;16.352;2023-03-01T09:19:22;2.42;;;1.55;;
43311;SDS011;30041;48.300;16.352;2023-03-01T09:21:47;2.13;;;1.52;;
43311;SDS011;30041;48.300;16.352;2023-03-01T09:24:13;2.60;;;1.58;;
43311;SDS011;30041;48.300;16.352;2023-03-01T09:26:40;2.80;;;1.48;;
43311;SDS011;30041;48.300;16.352;2023-03-01T09:29:05;2.88;;;1.23;;
43311;SDS011;30041;48.300;16.352;2023-03-01T09:31:31;2.88;;;1.60;;
43311;SDS011;30041;48.300;16.352;2023-03-01T09:33:57;2.10;;;1.20;;
43311;SDS011;30041;48.300;16.352;2023-03-01T09:36:23;2.25;;;1.45;;
43311;SDS011;30041;48.300;16.352;2023-03-01T09:38:49;2.17;;;1.48;;
43311;SDS011;30041;48.300;16.352;2023-03-01T09:41:22;2.53;;;1.27;;
43311;SDS011;30041;48.300;16.352;2023-03-01T09:43:50;1.95;;;1.40;;
43311;SDS011;30041;48.300;16.352;2023-03-01T09:46:27;1.92;;;1.27;;
43311;SDS011;30041;48.300;16.352;2023-03-01T09:48:57;2.00;;;1.33;;
43311;SDS011;30041;48.300;16.352;2023-03-01T09:51:31;2.35;;;1.40;;
43311;SDS011;30041;48.300;16.352;2023-03-01T09:54:00;2.63;;;1.50;;
43311;SDS011;30041;48.300;16.352;2023-03-01T09:56:29;2.13;;;1.33;;
43311;SDS011;30041;48.300;16.352;2023-03-01T09:59:07;2.25;;;1.55;;
43311;SDS011;30041;48.300;16.352;2023-03-01T10:01:48;2.05;;;1.38;;
43311;SDS011;30041;48.300;16.352;2023-03-01T10:04:44;2.53;;;1.52;;
43311;SDS011;30041;48.300;16.352;2023-03-01T10:07:26;2.72;;;1.30;;
43311;SDS011;30041;48.300;16.352;2023-03-01T10:09:57;2.85;;;1.42;;
43311;SDS011;30041;48.300;16.352;2023-03-01T10:12:25;2.10;;;1.35;;
43311;SDS011;30041;48.300;16.352;2023-03-01T10:15:05;10.07;;;6.15;;
43311;SDS011;30041;48.300;16.352;2023-03-01T10:17:50;9.20;;;6.15;;
43311;SDS011;30041;48.300;16.352;2023-03-01T10:20:22;7.43;;;5.38;;
43311;SDS011;30041;48.300;16.352;2023-03-01T10:22:52;14.85;;;6.30;;
43311;SDS011;30041;48.300;16.352;2023-03-01T10:25:24;9.35;;;5.38;;
43311;SDS011;30041;48.300;16.352;2023-03-01T10:28:20;9.00;;;6.07;;
43311;SDS011;30041;48.300;16.352;2023-03-01T10:30:49;8.70;;;5.82;;
43311;SDS011;30041;48.300;16.352;2023-03-01T10:33:23;7.38;;;5.40;;
43311;SDS011;30041;48.300;16.352;2023-03-01T10:35:51;9.32;;;5.72;;
43311;SDS011;30041;48.300;16.352;2023-03-01T10:38:17;8.32;;;5.68;;
43311;SDS011;30041;48.300;16.352;2023-03-01T10:40:50;8.43;;;5.55;;
43311;SDS011;30041;48.300;16.352;2023-03-01T10:43:24;10.43;;;5.63;;
43311;SDS011;30041;48.300;16.352;2023-03-01T10:45:52;7.63;;;5.50;;
43311;SDS011;30041;48.300;16.352;2023-03-01T10:48:22;8.57;;;5.60;;
43311;SDS011;30041;48.300;16.352;2023-03-01T10:50:50;8.73;;;5.80;;
43311;SDS011;30041;48.300;16.352;2023-03-01T10:53:32;11.35;;;5.68;;
43311;SDS011;30041;48.300;16.352;2023-03-01T10:56:06;9.27;;;5.95;;
43311;SDS011;30041;48.300;16.352;2023-03-01T10:58:35;8.23;;;6.03;;
43311;SDS011;30041;48.300;16.352;2023-03-01T11:01:05;10.65;;;5.78;;
43311;SDS011;30041;48.300;16.352;2023-03-01T11:03:37;8.15;;;5.85;;
43311;SDS011;30041;48.300;16.352;2023-03-01T11:08:42;8.00;;;5.93;;
43311;SDS011;30041;48.300;16.352;2023-03-01T11:13:50;7.45;;;5.45;;
43311;SDS011;30041;48.300;16.352;2023-03-01T11:16:38;7.00;;;4.78;;
43311;SDS011;30041;48.300;16.352;2023-03-01T11:21:34;7.63;;;5.45;;
43311;SDS011;30041;48.300;16.352;2023-03-01T11:24:05;10.00;;;5.38;;
43311;SDS011;30041;48.300;16.352;2023-03-01T11:26:35;8.07;;;5.63;;
43311;SDS011;30041;48.300;16.352;2023-03-01T11:29:06;7.65;;;5.13;;
43311;SDS011;30041;48.300;16.352;2023-03-01T11:31:38;9.77;;;5.80;;
43311;SDS011;30041;48.300;16.352;2023-03-01T11:34:11;8.02;;;5.18;;
43311;SDS011;30041;48.300;16.352;2023-03-01T11:42:18;9.55;;;5.97;;
43311;SDS011;30041;48.300;16.352;2023-03-01T11:44:48;8.48;;;5.82;;
43311;SDS011;30041;48.300;16.352;2023-03-01T11:53:28;8.25;;;5.80;;
43311;SDS011;30041;48.300;16.352;2023-03-01T11:56:31;8.95;;;5.28;;
43311;SDS011;30041;48.300;16.352;2023-03-01T12:02:32;7.53;;;4.95;;
43311;SDS011;30041;48.300;16.352;2023-03-01T12:07:20;8.23;;;5.03;;
43311;SDS011;30041;48.300;16.352;2023-03-01T12:10:01;7.25;;;4.85;;
43311;SDS011;30041;48.300;16.352;2023-03-01T12:18:45;6.88;;;4.95;;
43311;SDS011;30041;48.300;16.352;2023-03-01T12:24:32;7.93;;;5.00;;
43311;SDS011;30041;48.300;16.352;2023-03-01T12:30:01;7.15;;;4.72;;
43311;SDS011;30041;48.300;16.352;2023-03-01T12:32:55;7.55;;;4.97;;
43311;SDS011;30041;48.300;16.352;2023-03-01T12:41:41;6.50;;;4.07;;
43311;SDS011;30041;48.300;16.352;2023-03-01T12:49:55;7.63;;;4.57;;
43311;SDS011;30041;48.300;16.352;2023-03-01T12:52:37;7.10;;;4.80;;
43311;SDS011;30041;48.300;16.352;2023-03-01T12:55:08;6.38;;;4.40;;
43311;SDS011;30041;48.300;16.352;2023-03-01T13:00:45;9.68;;;5.25;;
43311;SDS011;30041;48.300;16.352;2023-03-01T13:06:22;11.55;;;6.32;;
43311;SDS011;30041;48.300;16.352;2023-03-01T13:09:07;11.90;;;6.45;;
43311;SDS011;30041;48.300;16.352;2023-03-01T13:11:41;12.45;;;6.88;;
43311;SDS011;30041;48.300;16.352;2023-03-01T13:16:45;12.73;;;7.72;;
43311;SDS011;30041;48.300;16.352;2023-03-01T13:19:24;14.00;;;7.72;;
43311;SDS011;30041;48.300;16.352;2023-03-01T13:21:51;18.23;;;8.57;;
43311;SDS011;30041;48.300;16.352;2023-03-01T13:24:35;14.20;;;7.95;;
43311;SDS011;30041;48.300;16.352;2023-03-01T13:29:46;16.48;;;8.32;;
43311;SDS011;30041;48.300;16.352;2023-03-01T13:32:28;15.85;;;8.32;;
43311;SDS011;30041;48.300;16.352;2023-03-01T13:34:57;17.42;;;8.85;;
43311;SDS011;30041;48.300;16.352;2023-03-01T13:37:25;17.73;;;9.50;;
43311;SDS011;30041;48.300;16.352;2023-03-01T13:39:52;17.52;;;8.85;;
43311;SDS011;30041;48.300;16.352;2023-03-01T13:42:34;15.52;;;8.80;;
43311;SDS011;30041;48.300;16.352;2023-03-01T13:45:04;16.52;;;9.23;;
43311;SDS011;30041;48.300;16.352;2023-03-01T13:47:39;17.20;;;9.52;;
43311;SDS011;30041;48.300;16.352;2023-03-01T13:50:15;16.10;;;9.27;;
43311;SDS011;30041;48.300;16.352;2023-03-01T13:52:54;16.67;;;8.73;;
43311;SDS011;30041;48.300;16.352;2023-03-01T13:55:27;16.70;;;9.27;;
43311;SDS011;30041;48.300;16.352;2023-03-01T13:58:03;16.15;;;8.57;;
43311;SDS011;30041;48.300;16.352;2023-03-01T14:00:41;19.05;;;9.85;;
43311;SDS011;30041;48.300;16.352;2023-03-01T14:03:11;18.25;;;9.80;;
43311;SDS011;30041;48.300;16.352;2023-03-01T14:05:38;17.02;;;9.85;;
43311;SDS011;30041;48.300;16.352;2023-03-01T14:08:05;18.40;;;9.52;;
43311;SDS011;30041;48.300;16.352;2023-03-01T14:19:15;16.95;;;10.65;;
43311;SDS011;30041;48.300;16.352;2023-03-01T14:21:42;18.88;;;10.50;;
43311;SDS011;30041;48.300;16.352;2023-03-01T14:24:18;18.15;;;10.50;;
43311;SDS011;30041;48.300;16.352;2023-03-01T14:26:51;20.65;;;11.05;;
43311;SDS011;30041;48.300;16.352;2023-03-01T14:29:37;18.73;;;10.52;;
43311;SDS011;30041;48.300;16.352;2023-03-01T14:34:47;19.13;;;10.25;;
43311;SDS011;30041;48.300;16.352;2023-03-01T14:37:21;17.73;;;10.43;;
43311;SDS011;30041;48.300;16.352;2023-03-01T14:39:52;15.63;;;9.55;;
43311;SDS011;30041;48.300;16.352;2023-03-01T14:42:19;14.63;;;9.50;;
43311;SDS011;30041;48.300;16.352;2023-03-01T14:44:47;16.08;;;9.93;;
43311;SDS011;30041;48.300;16.352;2023-03-01T14:47:17;15.98;;;9.45;;
43311;SDS011;30041;48.300;16.352;2023-03-01T14:49:51;15.35;;;8.77;;
43311;SDS011;30041;48.300;16.352;2023-03-01T14:52:34;17.48;;;9.70;;
43311;SDS011;30041;48.300;16.352;2023-03-01T14:55:18;15.88;;;9.10;;
43311;SDS011;30041;48.300;16.352;2023-03-01T14:57:50;17.55;;;10.02;;
43311;SDS011;30041;48.300;16.352;2023-03-01T15:00:21;16.08;;;9.50;;
43311;SDS011;30041;48.300;16.352;2023-03-01T15:02:51;14.65;;;8.45;;
43311;SDS011;30041;48.300;16.352;2023-03-01T15:05:18;13.25;;;8.38;;
43311;SDS011;30041;48.300;16.352;2023-03-01T15:07:57;14.38;;;8.88;;
43311;SDS011;30041;48.300;16.352;2023-03-01T15:10:26;15.00;;;8.57;;
43311;SDS011;30041;48.300;16.352;2023-03-01T15:12:56;14.40;;;8.15;;
43311;SDS011;30041;48.300;16.352;2023-03-01T15:15:39;12.90;;;8.55;;
43311;SDS011;30041;48.300;16.352;2023-03-01T15:23:51;15.02;;;8.30;;
43311;SDS011;30041;48.300;16.352;2023-03-01T15:26:26;10.00;;;6.88;;
43311;SDS011;30041;48.300;16.352;2023-03-01T15:28:55;12.85;;;7.60;;
43311;SDS011;30041;48.300;16.352;2023-03-01T15:31:24;12.73;;;7.40;;
43311;SDS011;30041;48.300;16.352;2023-03-01T15:33:51;11.57;;;7.57;;
43311;SDS011;30041;48.300;16.352;2023-03-01T15:36:30;13.30;;;7.43;;
43311;SDS011;30041;48.300;16.352;2023-03-01T15:38:57;11.32;;;7.43;;
43311;SDS011;30041;48.300;16.352;2023-03-01T15:43:53;10.70;;;6.82;;
43311;SDS011;30041;48.300;16.352;2023-03-01T15:46:34;13.43;;;8.07;;
43311;SDS011;30041;48.300;16.352;2023-03-01T15:49:03;12.10;;;6.75;;
43311;SDS011;30041;48.300;16.352;2023-03-01T15:54:01;9.90;;;6.75;;
43311;SDS011;30041;48.300;16.352;2023-03-01T15:56:42;12.00;;;7.32;;
43311;SDS011;30041;48.300;16.352;2023-03-01T15:59:08;11.07;;;7.32;;
43311;SDS011;30041;48.300;16.352;2023-03-01T16:01:38;12.05;;;7.38;;
43311;SDS011;30041;48.300;16.352;2023-03-01T16:04:03;11.98;;;6.85;;
43311;SDS011;30041;48.300;16.352;2023-03-01T16:06:29;10.23;;;6.65;;
43311;SDS011;30041;48.300;16.352;2023-03-01T16:08:55;10.00;;;6.38;;